Dupuy, Canada
Current Conditions -  °F | °C
As of 7:45 PM on Saturday 25 Oct 2014 (Local Time) from CYUY Reporting Station
Rain Showers Rain Showers  
Wind Chill: 37°   Ceiling: 2000
Heat Index: 43°   Visibility: 15mi
Dew Point: 39°   Wind: 10mph
Humidity: 87%   Direction: 280°W
Pressure: 29.41"   Gusts: 21mph
Location:  48.83°N, 79.37°W
Report Text: CYUY 252345Z 28009G18KT 15SM -SHRA FEW014 BKN020 06/04 A2941 RMK SC1SC6 SLP967
Loading
Personal Weather Stations






























Interactive Weather Map
Tropical Storm Tracking
New forecast layout! Learn more

10-Day Weather Forecast

Advertisements
Track Severe Weather on mobile